Back to top

Yellowstone, WY weather

Yellowstone (RAMOS), Yellowstone, WY: 12/11/2019 16:56
Visibilityunavailableclear sky
View 7-Day Forecast
Area Summary
Sky/Clouds
Weather [last 24 hours]None
Pressure30.05 in.Hg (1018 hPa)
3-hour Pressure Tendency0.02953 in.Hg (1 hPa) Decreasing or steady, then increasing; or increasing then increasing more rapidly
Dew Point19.9 °F (-6.7 °C)
Relative Humidity91.9 %
Hourly Precipitation0.01 in. (0.254 mm)
6 Hour Precip. Rpt.0.02 in. (0.508 mm)
Last 24-Hour Precip.0.03 in. (0.762 mm)
Reading TimePrecipitation
6-hr ending 12/11@16:560.02 in. (0.508 mm)
6-hr ending 12/11@10:560.01 in. (0.254 mm)
Temperature21.9 °F (-5.6 °C)blue thermometer
Wind Chill15.7 °F (-9.08 °C)
Reading TimeMinimum to Maximum Temperature
6-hr ending 12/11@16:5621 °F to 23 °F (-6.1 °C to -5 °C)
6-hr ending 12/11@10:5615.1 °F to 21.9 °F (-9.4 °C to -5.6 °C)
6-hr ending 12/11@04:5617.1 °F to 19.9 °F (-8.3 °C to -6.7 °C)
6-hr ending 12/10@22:5619.9 °F to 19.9 °F (-6.7 °C to -6.7 °C)
24-hr ending 12/10@23:5617.1 °F to 21.9 °F (-8.3 °C to -5.6 °C)
Wind4.6 MPH (4 KT) green arrow with no specific direction
Wind FromVariable (VRB Degrees)
Twilight Begins07:14Sunshine Yesterday
Sunrise07:47N/A
Sunset16:43
Twilight Ends17:17
METARKP60 112356Z AUTO VRB04KT M06/M07 A3005 RMK AO1 SLP217 P0001 60002 T10561067 11050 21061 53010
Tags: